sensor_id;sensor_type;location;lat;lon;timestamp;pressure;altitude;pressure_sealevel;temperature;humidity
67980;BME280;54760;47.490;19.030;2023-05-03T00:02:20;100409.34;;;16.03;82.94
67980;BME280;54760;47.490;19.030;2023-05-03T00:04:45;100409.81;;;15.89;84.18
67980;BME280;54760;47.490;19.030;2023-05-03T00:07:12;100401.50;;;16.01;83.22
67980;BME280;54760;47.490;19.030;2023-05-03T00:09:38;100400.22;;;16.15;82.78
67980;BME280;54760;47.490;19.030;2023-05-03T00:12:04;100390.56;;;15.98;84.07
67980;BME280;54760;47.490;19.030;2023-05-03T00:14:30;100399.41;;;16.06;84.06
67980;BME280;54760;47.490;19.030;2023-05-03T00:16:55;100397.41;;;16.06;84.53
67980;BME280;54760;47.490;19.030;2023-05-03T00:19:21;100390.47;;;16.01;85.05
67980;BME280;54760;47.490;19.030;2023-05-03T00:21:51;100392.31;;;15.83;86.50
67980;BME280;54760;47.490;19.030;2023-05-03T00:24:16;100395.31;;;15.76;86.82
67980;BME280;54760;47.490;19.030;2023-05-03T00:26:42;100387.94;;;15.94;86.19
67980;BME280;54760;47.490;19.030;2023-05-03T00:29:07;100387.44;;;16.09;85.59
67980;BME280;54760;47.490;19.030;2023-05-03T00:31:32;100380.84;;;16.06;85.51
67980;BME280;54760;47.490;19.030;2023-05-03T00:33:58;100378.38;;;15.86;85.32
67980;BME280;54760;47.490;19.030;2023-05-03T00:36:23;100384.03;;;15.83;85.81
67980;BME280;54760;47.490;19.030;2023-05-03T00:38:49;100383.47;;;15.88;85.23
67980;BME280;54760;47.490;19.030;2023-05-03T00:41:15;100389.16;;;15.93;85.27
67980;BME280;54760;47.490;19.030;2023-05-03T00:43:40;100389.87;;;15.85;85.70
67980;BME280;54760;47.490;19.030;2023-05-03T00:46:06;100394.66;;;15.72;86.33
67980;BME280;54760;47.490;19.030;2023-05-03T00:48:33;100390.91;;;15.66;86.55
67980;BME280;54760;47.490;19.030;2023-05-03T00:51:00;100397.66;;;15.65;86.62
67980;BME280;54760;47.490;19.030;2023-05-03T00:53:26;100391.91;;;15.72;86.42
67980;BME280;54760;47.490;19.030;2023-05-03T00:55:54;100403.37;;;15.70;86.26
67980;BME280;54760;47.490;19.030;2023-05-03T00:58:20;100397.66;;;15.65;86.44
67980;BME280;54760;47.490;19.030;2023-05-03T01:00:46;100402.84;;;15.63;87.53
67980;BME280;54760;47.490;19.030;2023-05-03T01:03:12;100405.16;;;15.64;86.57
67980;BME280;54760;47.490;19.030;2023-05-03T01:05:50;100402.44;;;15.51;85.65
67980;BME280;54760;47.490;19.030;2023-05-03T01:08:31;100406.84;;;15.49;86.41
67980;BME280;54760;47.490;19.030;2023-05-03T01:11:32;100417.09;;;15.61;86.24
67980;BME280;54760;47.490;19.030;2023-05-03T01:16:32;100418.84;;;15.68;85.91
67980;BME280;54760;47.490;19.030;2023-05-03T01:19:03;100419.41;;;15.63;86.15
67980;BME280;54760;47.490;19.030;2023-05-03T01:21:29;100420.53;;;15.52;86.18
67980;BME280;54760;47.490;19.030;2023-05-03T01:23:59;100422.84;;;15.41;87.85
67980;BME280;54760;47.490;19.030;2023-05-03T01:26:28;100421.94;;;15.44;88.10
67980;BME280;54760;47.490;19.030;2023-05-03T01:28:54;100427.22;;;15.64;86.89
67980;BME280;54760;47.490;19.030;2023-05-03T01:31:27;100419.94;;;15.70;86.57
67980;BME280;54760;47.490;19.030;2023-05-03T01:36:44;100420.06;;;15.67;86.92
67980;BME280;54760;47.490;19.030;2023-05-03T01:39:17;100426.87;;;15.75;86.65
67980;BME280;54760;47.490;19.030;2023-05-03T01:41:44;100415.84;;;15.75;86.44
67980;BME280;54760;47.490;19.030;2023-05-03T01:44:11;100421.75;;;15.39;88.81
67980;BME280;54760;47.490;19.030;2023-05-03T01:46:43;100417.88;;;15.36;89.24
67980;BME280;54760;47.490;19.030;2023-05-03T01:49:10;100417.66;;;15.43;89.27
67980;BME280;54760;47.490;19.030;2023-05-03T01:51:35;100416.09;;;15.68;88.52
67980;BME280;54760;47.490;19.030;2023-05-03T01:54:01;100425.50;;;15.57;89.09
67980;BME280;54760;47.490;19.030;2023-05-03T01:56:26;100423.50;;;15.33;90.81
67980;BME280;54760;47.490;19.030;2023-05-03T01:58:52;100412.56;;;15.54;89.97
67980;BME280;54760;47.490;19.030;2023-05-03T02:01:17;100419.97;;;15.57;89.69
67980;BME280;54760;47.490;19.030;2023-05-03T02:03:42;100420.63;;;15.62;89.18
67980;BME280;54760;47.490;19.030;2023-05-03T02:06:08;100419.84;;;15.48;89.81
67980;BME280;54760;47.490;19.030;2023-05-03T02:08:33;100416.75;;;15.59;89.43
67980;BME280;54760;47.490;19.030;2023-05-03T02:10:58;100411.13;;;15.63;89.30
67980;BME280;54760;47.490;19.030;2023-05-03T02:13:24;100407.50;;;15.40;90.60
67980;BME280;54760;47.490;19.030;2023-05-03T02:15:49;100400.19;;;15.59;89.87
67980;BME280;54760;47.490;19.030;2023-05-03T02:18:15;100410.94;;;15.32;91.28
67980;BME280;54760;47.490;19.030;2023-05-03T02:20:44;100398.41;;;15.65;89.51
67980;BME280;54760;47.490;19.030;2023-05-03T02:23:10;100401.97;;;15.66;89.37
67980;BME280;54760;47.490;19.030;2023-05-03T02:25:35;100403.09;;;15.55;89.75
67980;BME280;54760;47.490;19.030;2023-05-03T02:28:00;100405.41;;;15.32;91.12
67980;BME280;54760;47.490;19.030;2023-05-03T02:30:26;100408.12;;;15.44;90.59
67980;BME280;54760;47.490;19.030;2023-05-03T02:32:51;100405.59;;;15.50;89.40
67980;BME280;54760;47.490;19.030;2023-05-03T02:35:17;100405.72;;;15.46;90.28
67980;BME280;54760;47.490;19.030;2023-05-03T02:37:42;100403.75;;;15.47;89.67
67980;BME280;54760;47.490;19.030;2023-05-03T02:40:08;100392.63;;;15.12;92.57
67980;BME280;54760;47.490;19.030;2023-05-03T02:42:37;100404.22;;;14.95;94.13
67980;BME280;54760;47.490;19.030;2023-05-03T02:45:02;100401.56;;;14.91;94.55
67980;BME280;54760;47.490;19.030;2023-05-03T02:47:28;100393.50;;;14.97;94.84
67980;BME280;54760;47.490;19.030;2023-05-03T02:49:54;100380.72;;;15.03;94.13
67980;BME280;54760;47.490;19.030;2023-05-03T02:52:19;100380.03;;;15.37;91.65
67980;BME280;54760;47.490;19.030;2023-05-03T02:54:45;100391.84;;;15.37;91.71
67980;BME280;54760;47.490;19.030;2023-05-03T02:57:11;100387.97;;;15.35;91.79
67980;BME280;54760;47.490;19.030;2023-05-03T02:59:37;100393.37;;;15.38;91.53
67980;BME280;54760;47.490;19.030;2023-05-03T03:02:02;100392.19;;;15.27;91.75
67980;BME280;54760;47.490;19.030;2023-05-03T03:04:28;100389.00;;;15.28;92.17
67980;BME280;54760;47.490;19.030;2023-05-03T03:06:53;100383.03;;;15.17;92.69
67980;BME280;54760;47.490;19.030;2023-05-03T03:09:19;100384.81;;;15.24;92.75
67980;BME280;54760;47.490;19.030;2023-05-03T03:11:45;100376.06;;;15.38;91.82
67980;BME280;54760;47.490;19.030;2023-05-03T03:14:10;100375.50;;;15.30;92.07
67980;BME280;54760;47.490;19.030;2023-05-03T03:16:35;100382.34;;;15.38;90.95
67980;BME280;54760;47.490;19.030;2023-05-03T03:19:01;100387.41;;;15.40;89.99
67980;BME280;54760;47.490;19.030;2023-05-03T03:21:26;100390.22;;;15.14;91.76
67980;BME280;54760;47.490;19.030;2023-05-03T03:23:53;100387.88;;;15.26;91.47
67980;BME280;54760;47.490;19.030;2023-05-03T03:26:18;100382.50;;;15.09;92.39
67980;BME280;54760;47.490;19.030;2023-05-03T03:28:44;100388.78;;;15.10;92.65
67980;BME280;54760;47.490;19.030;2023-05-03T03:31:09;100398.03;;;15.03;92.70
67980;BME280;54760;47.490;19.030;2023-05-03T03:33:35;100393.72;;;15.28;91.37
67980;BME280;54760;47.490;19.030;2023-05-03T03:36:00;100393.06;;;15.24;91.09
67980;BME280;54760;47.490;19.030;2023-05-03T03:38:26;100390.09;;;15.18;91.19
67980;BME280;54760;47.490;19.030;2023-05-03T03:40:51;100385.56;;;15.11;92.28
67980;BME280;54760;47.490;19.030;2023-05-03T03:43:18;100385.97;;;15.35;90.69
67980;BME280;54760;47.490;19.030;2023-05-03T03:45:43;100394.97;;;15.14;91.31
67980;BME280;54760;47.490;19.030;2023-05-03T03:48:09;100400.34;;;15.17;91.87
67980;BME280;54760;47.490;19.030;2023-05-03T03:50:36;100408.53;;;15.08;91.64
67980;BME280;54760;47.490;19.030;2023-05-03T03:53:02;100403.44;;;15.20;91.50
67980;BME280;54760;47.490;19.030;2023-05-03T03:55:27;100404.19;;;15.45;89.66
67980;BME280;54760;47.490;19.030;2023-05-03T03:57:52;100398.12;;;15.38;90.30
67980;BME280;54760;47.490;19.030;2023-05-03T04:00:18;100404.94;;;15.46;89.65
67980;BME280;54760;47.490;19.030;2023-05-03T04:02:44;100409.69;;;15.45;89.63
67980;BME280;54760;47.490;19.030;2023-05-03T04:05:09;100408.47;;;15.46;89.70
67980;BME280;54760;47.490;19.030;2023-05-03T04:07:35;100411.72;;;15.20;90.76
67980;BME280;54760;47.490;19.030;2023-05-03T04:10:03;100410.72;;;15.13;91.70
67980;BME280;54760;47.490;19.030;2023-05-03T04:12:28;100412.81;;;15.22;91.02
67980;BME280;54760;47.490;19.030;2023-05-03T04:14:54;100408.16;;;15.32;90.15
67980;BME280;54760;47.490;19.030;2023-05-03T04:17:21;100416.41;;;15.44;89.24
67980;BME280;54760;47.490;19.030;2023-05-03T04:19:46;100413.34;;;15.42;89.67
67980;BME280;54760;47.490;19.030;2023-05-03T04:22:12;100419.19;;;15.44;89.19
67980;BME280;54760;47.490;19.030;2023-05-03T04:24:37;100413.47;;;15.51;88.60
67980;BME280;54760;47.490;19.030;2023-05-03T04:27:03;100419.84;;;15.48;88.62
67980;BME280;54760;47.490;19.030;2023-05-03T04:29:29;100422.09;;;15.28;89.94
67980;BME280;54760;47.490;19.030;2023-05-03T04:31:55;100424.69;;;15.44;88.85
67980;BME280;54760;47.490;19.030;2023-05-03T04:34:21;100426.25;;;15.45;88.88
67980;BME280;54760;47.490;19.030;2023-05-03T04:36:46;100423.37;;;15.36;89.29
67980;BME280;54760;47.490;19.030;2023-05-03T04:39:13;100421.75;;;15.26;90.73
67980;BME280;54760;47.490;19.030;2023-05-03T04:41:39;100425.59;;;15.41;89.50
67980;BME280;54760;47.490;19.030;2023-05-03T04:44:06;100429.56;;;15.40;88.77
67980;BME280;54760;47.490;19.030;2023-05-03T04:46:31;100437.19;;;15.62;87.79
67980;BME280;54760;47.490;19.030;2023-05-03T04:48:56;100440.37;;;15.47;88.48
67980;BME280;54760;47.490;19.030;2023-05-03T04:51:22;100445.12;;;15.59;87.92
67980;BME280;54760;47.490;19.030;2023-05-03T04:53:48;100437.91;;;15.75;86.84
67980;BME280;54760;47.490;19.030;2023-05-03T04:56:14;100437.44;;;15.89;85.14
67980;BME280;54760;47.490;19.030;2023-05-03T04:58:39;100446.19;;;15.87;85.57
67980;BME280;54760;47.490;19.030;2023-05-03T05:01:05;100445.69;;;15.67;86.99
67980;BME280;54760;47.490;19.030;2023-05-03T05:03:31;100451.72;;;15.75;86.86
67980;BME280;54760;47.490;19.030;2023-05-03T05:05:57;100444.75;;;15.83;86.00
67980;BME280;54760;47.490;19.030;2023-05-03T05:08:22;100447.84;;;15.85;85.87
67980;BME280;54760;47.490;19.030;2023-05-03T05:10:48;100443.63;;;15.93;85.40
67980;BME280;54760;47.490;19.030;2023-05-03T05:13:14;100451.03;;;15.83;86.24
67980;BME280;54760;47.490;19.030;2023-05-03T05:15:39;100456.09;;;15.97;85.23
67980;BME280;54760;47.490;19.030;2023-05-03T05:18:05;100447.13;;;16.06;84.85
67980;BME280;54760;47.490;19.030;2023-05-03T05:20:30;100445.94;;;15.94;85.27
67980;BME280;54760;47.490;19.030;2023-05-03T05:22:55;100448.88;;;16.00;84.65
67980;BME280;54760;47.490;19.030;2023-05-03T05:25:21;100450.84;;;16.12;84.06
67980;BME280;54760;47.490;19.030;2023-05-03T05:27:46;100450.84;;;16.34;83.31
67980;BME280;54760;47.490;19.030;2023-05-03T05:30:12;100448.53;;;16.32;83.37
67980;BME280;54760;47.490;19.030;2023-05-03T05:32:38;100446.50;;;16.45;83.47
67980;BME280;54760;47.490;19.030;2023-05-03T05:35:03;100455.28;;;16.53;82.89
67980;BME280;54760;47.490;19.030;2023-05-03T05:37:30;100451.91;;;16.71;82.52
67980;BME280;54760;47.490;19.030;2023-05-03T05:39:55;100448.03;;;16.90;81.64
67980;BME280;54760;47.490;19.030;2023-05-03T05:42:21;100457.37;;;17.14;80.07
67980;BME280;54760;47.490;19.030;2023-05-03T05:44:46;100456.66;;;17.32;79.09
67980;BME280;54760;47.490;19.030;2023-05-03T05:47:12;100453.28;;;17.77;77.36
67980;BME280;54760;47.490;19.030;2023-05-03T05:49:37;100454.50;;;17.85;77.11
67980;BME280;54760;47.490;19.030;2023-05-03T05:52:03;100450.84;;;17.97;75.50
67980;BME280;54760;47.490;19.030;2023-05-03T05:54:28;100453.47;;;18.01;75.44
67980;BME280;54760;47.490;19.030;2023-05-03T05:56:54;100463.16;;;18.05;73.91
67980;BME280;54760;47.490;19.030;2023-05-03T05:59:19;100456.50;;;17.94;74.83
67980;BME280;54760;47.490;19.030;2023-05-03T06:01:45;100466.19;;;17.71;74.77
67980;BME280;54760;47.490;19.030;2023-05-03T06:04:11;100482.44;;;17.60;75.85
67980;BME280;54760;47.490;19.030;2023-05-03T06:06:37;100480.97;;;17.37;77.03
67980;BME280;54760;47.490;19.030;2023-05-03T06:09:02;100486.91;;;17.26;77.56
67980;BME280;54760;47.490;19.030;2023-05-03T06:11:27;100487.53;;;17.30;77.08
67980;BME280;54760;47.490;19.030;2023-05-03T06:13:54;100495.53;;;17.28;76.59
67980;BME280;54760;47.490;19.030;2023-05-03T06:16:20;100490.91;;;17.25;76.92
67980;BME280;54760;47.490;19.030;2023-05-03T06:18:46;100494.00;;;17.27;76.52
67980;BME280;54760;47.490;19.030;2023-05-03T06:21:11;100499.88;;;17.39;76.43
67980;BME280;54760;47.490;19.030;2023-05-03T06:23:36;100505.28;;;17.73;75.36
67980;BME280;54760;47.490;19.030;2023-05-03T06:26:05;100507.16;;;17.94;74.89
67980;BME280;54760;47.490;19.030;2023-05-03T06:28:31;100503.16;;;18.04;73.77
67980;BME280;54760;47.490;19.030;2023-05-03T06:30:56;100507.81;;;18.35;73.18
67980;BME280;54760;47.490;19.030;2023-05-03T06:33:22;100505.97;;;18.59;71.93
67980;BME280;54760;47.490;19.030;2023-05-03T06:35:47;100524.00;;;18.64;71.51
67980;BME280;54760;47.490;19.030;2023-05-03T06:38:13;100526.94;;;18.69;70.87
67980;BME280;54760;47.490;19.030;2023-05-03T06:40:39;100524.59;;;18.95;69.77
67980;BME280;54760;47.490;19.030;2023-05-03T06:43:06;100513.94;;;18.93;69.30
67980;BME280;54760;47.490;19.030;2023-05-03T06:45:31;100526.88;;;19.06;68.33
67980;BME280;54760;47.490;19.030;2023-05-03T06:47:57;100524.59;;;19.37;67.10
67980;BME280;54760;47.490;19.030;2023-05-03T06:50:22;100525.31;;;19.56;67.02
67980;BME280;54760;47.490;19.030;2023-05-03T06:52:49;100522.16;;;19.72;65.63
67980;BME280;54760;47.490;19.030;2023-05-03T06:55:15;100522.31;;;19.77;66.17
67980;BME280;54760;47.490;19.030;2023-05-03T06:57:40;100528.19;;;19.70;65.48
67980;BME280;54760;47.490;19.030;2023-05-03T07:00:12;100524.13;;;19.80;65.64
67980;BME280;54760;47.490;19.030;2023-05-03T07:02:37;100517.12;;;19.61;65.30
67980;BME280;54760;47.490;19.030;2023-05-03T07:05:03;100515.59;;;19.60;64.48
67980;BME280;54760;47.490;19.030;2023-05-03T07:07:28;100517.09;;;19.94;64.71
67980;BME280;54760;47.490;19.030;2023-05-03T07:09:54;100514.09;;;20.07;64.50
67980;BME280;54760;47.490;19.030;2023-05-03T07:12:19;100512.38;;;20.09;62.78
67980;BME280;54760;47.490;19.030;2023-05-03T07:14:45;100518.22;;;19.87;63.91
67980;BME280;54760;47.490;19.030;2023-05-03T07:17:11;100517.03;;;19.79;62.89
67980;BME280;54760;47.490;19.030;2023-05-03T07:19:37;100517.22;;;19.76;63.65
67980;BME280;54760;47.490;19.030;2023-05-03T07:22:03;100521.66;;;19.82;62.42
67980;BME280;54760;47.490;19.030;2023-05-03T07:24:28;100517.22;;;20.00;61.72
67980;BME280;54760;47.490;19.030;2023-05-03T07:26:53;100515.34;;;20.06;61.72
67980;BME280;54760;47.490;19.030;2023-05-03T07:29:19;100511.31;;;20.30;61.66
67980;BME280;54760;47.490;19.030;2023-05-03T07:31:45;100518.47;;;20.46;62.37
67980;BME280;54760;47.490;19.030;2023-05-03T07:34:11;100524.13;;;20.52;61.99
67980;BME280;54760;47.490;19.030;2023-05-03T07:36:37;100514.44;;;20.47;61.71
67980;BME280;54760;47.490;19.030;2023-05-03T07:39:03;100523.53;;;20.24;60.46
67980;BME280;54760;47.490;19.030;2023-05-03T07:41:29;100524.97;;;20.19;61.40
67980;BME280;54760;47.490;19.030;2023-05-03T07:43:55;100527.81;;;20.34;61.52
67980;BME280;54760;47.490;19.030;2023-05-03T07:46:21;100529.59;;;20.46;61.63
67980;BME280;54760;47.490;19.030;2023-05-03T07:48:47;100528.06;;;20.60;61.19
67980;BME280;54760;47.490;19.030;2023-05-03T07:51:12;100532.69;;;20.77;60.63
67980;BME280;54760;47.490;19.030;2023-05-03T07:53:38;100532.31;;;20.85;59.33
67980;BME280;54760;47.490;19.030;2023-05-03T07:56:05;100526.38;;;21.36;58.54
67980;BME280;54760;47.490;19.030;2023-05-03T07:58:31;100532.41;;;21.64;56.92
67980;BME280;54760;47.490;19.030;2023-05-03T08:00:56;100526.53;;;21.61;55.48
67980;BME280;54760;47.490;19.030;2023-05-03T08:03:22;100523.84;;;22.02;55.03
67980;BME280;54760;47.490;19.030;2023-05-03T08:05:48;100531.78;;;22.09;54.49
67980;BME280;54760;47.490;19.030;2023-05-03T08:08:13;100526.28;;;22.35;52.02
67980;BME280;54760;47.490;19.030;2023-05-03T08:10:39;100532.47;;;22.24;51.57
67980;BME280;54760;47.490;19.030;2023-05-03T08:13:05;100533.88;;;22.34;51.61
67980;BME280;54760;47.490;19.030;2023-05-03T08:15:31;100536.22;;;22.01;51.14
67980;BME280;54760;47.490;19.030;2023-05-03T08:17:57;100534.00;;;22.25;51.63
67980;BME280;54760;47.490;19.030;2023-05-03T08:20:22;100530.94;;;22.43;50.75
67980;BME280;54760;47.490;19.030;2023-05-03T08:22:48;100540.97;;;22.76;50.75
67980;BME280;54760;47.490;19.030;2023-05-03T08:25:13;100542.34;;;22.66;50.11
67980;BME280;54760;47.490;19.030;2023-05-03T08:27:41;100536.47;;;22.84;50.25
67980;BME280;54760;47.490;19.030;2023-05-03T08:30:07;100540.72;;;23.31;48.01
67980;BME280;54760;47.490;19.030;2023-05-03T08:32:33;100538.75;;;23.43;47.15
67980;BME280;54760;47.490;19.030;2023-05-03T08:34:59;100542.81;;;23.42;47.92
67980;BME280;54760;47.490;19.030;2023-05-03T08:37:24;100536.59;;;23.26;47.56
67980;BME280;54760;47.490;19.030;2023-05-03T08:39:50;100547.22;;;23.22;47.82
67980;BME280;54760;47.490;19.030;2023-05-03T08:42:16;100540.66;;;23.57;47.48
67980;BME280;54760;47.490;19.030;2023-05-03T08:44:46;100534.16;;;23.71;46.74
67980;BME280;54760;47.490;19.030;2023-05-03T08:47:16;100547.28;;;23.28;47.20
67980;BME280;54760;47.490;19.030;2023-05-03T08:49:42;100543.59;;;23.42;47.78
67980;BME280;54760;47.490;19.030;2023-05-03T08:52:09;100552.47;;;23.72;47.04
67980;BME280;54760;47.490;19.030;2023-05-03T08:54:37;100545.31;;;24.08;46.43
67980;BME280;54760;47.490;19.030;2023-05-03T08:57:03;100554.16;;;23.58;46.54
67980;BME280;54760;47.490;19.030;2023-05-03T08:59:33;100550.75;;;23.86;46.58
67980;BME280;54760;47.490;19.030;2023-05-03T09:01:58;100551.75;;;23.46;46.74
67980;BME280;54760;47.490;19.030;2023-05-03T09:04:32;100549.25;;;23.48;47.61
67980;BME280;54760;47.490;19.030;2023-05-03T09:07:07;100546.81;;;24.03;46.28
67980;BME280;54760;47.490;19.030;2023-05-03T09:09:33;100549.06;;;23.94;45.75
67980;BME280;54760;47.490;19.030;2023-05-03T09:11:58;100546.06;;;23.35;47.61
67980;BME280;54760;47.490;19.030;2023-05-03T09:14:24;100538.56;;;23.46;48.16
67980;BME280;54760;47.490;19.030;2023-05-03T09:16:49;100545.34;;;23.40;47.60
67980;BME280;54760;47.490;19.030;2023-05-03T09:19:15;100543.06;;;23.12;48.19
67980;BME280;54760;47.490;19.030;2023-05-03T09:21:43;100538.72;;;23.06;48.97
67980;BME280;54760;47.490;19.030;2023-05-03T09:24:16;100539.25;;;22.84;49.45
67980;BME280;54760;47.490;19.030;2023-05-03T09:26:43;100541.75;;;23.33;48.21
67980;BME280;54760;47.490;19.030;2023-05-03T09:29:09;100540.25;;;22.81;48.59
67980;BME280;54760;47.490;19.030;2023-05-03T09:31:36;100541.50;;;22.60;50.35
67980;BME280;54760;47.490;19.030;2023-05-03T09:34:19;100539.19;;;22.78;50.16
67980;BME280;54760;47.490;19.030;2023-05-03T09:36:46;100543.00;;;23.01;49.30
67980;BME280;54760;47.490;19.030;2023-05-03T09:39:18;100537.94;;;22.79;49.78
67980;BME280;54760;47.490;19.030;2023-05-03T09:41:44;100540.47;;;23.03;49.48
67980;BME280;54760;47.490;19.030;2023-05-03T09:44:10;100544.38;;;22.65;50.49
67980;BME280;54760;47.490;19.030;2023-05-03T09:46:36;100537.00;;;22.88;49.89
67980;BME280;54760;47.490;19.030;2023-05-03T09:49:02;100544.91;;;23.47;50.05
67980;BME280;54760;47.490;19.030;2023-05-03T09:51:28;100537.12;;;24.04;47.98
67980;BME280;54760;47.490;19.030;2023-05-03T09:53:57;100541.03;;;23.70;48.69
67980;BME280;54760;47.490;19.030;2023-05-03T09:56:23;100540.34;;;23.86;48.13
67980;BME280;54760;47.490;19.030;2023-05-03T09:58:52;100544.59;;;23.76;47.29
67980;BME280;54760;47.490;19.030;2023-05-03T10:01:22;100543.66;;;23.48;47.92
67980;BME280;54760;47.490;19.030;2023-05-03T10:03:50;100545.03;;;23.32;48.16
67980;BME280;54760;47.490;19.030;2023-05-03T10:06:29;100542.16;;;22.95;49.09
67980;BME280;54760;47.490;19.030;2023-05-03T10:08:59;100536.28;;;23.45;49.65
67980;BME280;54760;47.490;19.030;2023-05-03T10:11:28;100538.91;;;23.02;50.44
67980;BME280;54760;47.490;19.030;2023-05-03T10:13:54;100531.84;;;23.07;49.71
67980;BME280;54760;47.490;19.030;2023-05-03T10:16:26;100545.50;;;22.99;48.74
67980;BME280;54760;47.490;19.030;2023-05-03T10:18:58;100542.66;;;22.94;48.83
67980;BME280;54760;47.490;19.030;2023-05-03T10:24:24;100537.41;;;23.01;49.54
67980;BME280;54760;47.490;19.030;2023-05-03T10:26:50;100533.38;;;23.33;47.90
67980;BME280;54760;47.490;19.030;2023-05-03T10:35:12;100532.00;;;23.49;48.35
67980;BME280;54760;47.490;19.030;2023-05-03T10:37:40;100534.56;;;22.96;49.26
67980;BME280;54760;47.490;19.030;2023-05-03T10:40:10;100527.03;;;22.35;50.82
67980;BME280;54760;47.490;19.030;2023-05-03T10:42:37;100525.94;;;22.27;51.56
67980;BME280;54760;47.490;19.030;2023-05-03T10:45:03;100531.03;;;22.09;53.03
67980;BME280;54760;47.490;19.030;2023-05-03T10:47:28;100517.34;;;21.76;53.98
67980;BME280;54760;47.490;19.030;2023-05-03T10:55:10;100518.56;;;21.89;53.38
67980;BME280;54760;47.490;19.030;2023-05-03T10:57:39;100514.63;;;21.61;53.63
67980;BME280;54760;47.490;19.030;2023-05-03T11:00:11;100515.28;;;21.91;52.50
67980;BME280;54760;47.490;19.030;2023-05-03T11:03:05;100516.88;;;21.77;52.57
67980;BME280;54760;47.490;19.030;2023-05-03T11:05:27;100517.56;;;22.07;51.92
67980;BME280;54760;47.490;19.030;2023-05-03T11:08:16;100518.97;;;21.97;52.71
67980;BME280;54760;47.490;19.030;2023-05-03T11:10:47;100519.19;;;21.79;52.95
67980;BME280;54760;47.490;19.030;2023-05-03T11:13:13;100520.31;;;21.87;52.99
67980;BME280;54760;47.490;19.030;2023-05-03T11:15:39;100516.66;;;21.81;53.21
67980;BME280;54760;47.490;19.030;2023-05-03T11:18:06;100517.22;;;21.65;53.20
67980;BME280;54760;47.490;19.030;2023-05-03T11:20:33;100515.69;;;21.98;52.59
67980;BME280;54760;47.490;19.030;2023-05-03T11:22:58;100520.06;;;22.05;52.08
67980;BME280;54760;47.490;19.030;2023-05-03T11:25:23;100514.63;;;21.96;52.53
67980;BME280;54760;47.490;19.030;2023-05-03T11:27:49;100522.63;;;21.88;52.59
67980;BME280;54760;47.490;19.030;2023-05-03T11:30:15;100522.09;;;21.70;52.44
67980;BME280;54760;47.490;19.030;2023-05-03T11:32:42;100522.38;;;21.72;52.99
67980;BME280;54760;47.490;19.030;2023-05-03T11:35:07;100517.03;;;21.88;52.81
67980;BME280;54760;47.490;19.030;2023-05-03T11:37:34;100519.75;;;21.83;52.16
67980;BME280;54760;47.490;19.030;2023-05-03T11:39:59;100516.41;;;21.79;52.32
67980;BME280;54760;47.490;19.030;2023-05-03T11:42:25;100513.19;;;21.86;52.38
67980;BME280;54760;47.490;19.030;2023-05-03T11:44:52;100513.75;;;21.90;52.79
67980;BME280;54760;47.490;19.030;2023-05-03T11:47:18;100510.06;;;21.78;53.29
67980;BME280;54760;47.490;19.030;2023-05-03T11:49:54;100511.84;;;21.96;52.47
67980;BME280;54760;47.490;19.030;2023-05-03T11:52:24;100511.44;;;22.03;52.81
67980;BME280;54760;47.490;19.030;2023-05-03T11:54:50;100512.22;;;22.03;52.56
67980;BME280;54760;47.490;19.030;2023-05-03T11:57:16;100512.63;;;21.82;52.59
67980;BME280;54760;47.490;19.030;2023-05-03T11:59:42;100509.91;;;22.02;51.96
67980;BME280;54760;47.490;19.030;2023-05-03T12:02:11;100507.81;;;21.97;51.93
67980;BME280;54760;47.490;19.030;2023-05-03T12:04:38;100507.41;;;21.69;52.52
67980;BME280;54760;47.490;19.030;2023-05-03T12:07:05;100511.34;;;21.62;52.78
67980;BME280;54760;47.490;19.030;2023-05-03T12:09:32;100522.28;;;21.66;52.67
67980;BME280;54760;47.490;19.030;2023-05-03T12:11:58;100509.97;;;21.73;52.60
67980;BME280;54760;47.490;19.030;2023-05-03T12:14:24;100509.06;;;21.46;53.28
67980;BME280;54760;47.490;19.030;2023-05-03T12:16:50;100516.88;;;21.28;53.88
67980;BME280;54760;47.490;19.030;2023-05-03T12:19:29;100509.88;;;21.32;53.87
67980;BME280;54760;47.490;19.030;2023-05-03T12:21:55;100511.72;;;21.06;54.78
67980;BME280;54760;47.490;19.030;2023-05-03T12:24:21;100507.38;;;21.05;54.67
67980;BME280;54760;47.490;19.030;2023-05-03T12:26:48;100507.38;;;21.34;53.98
67980;BME280;54760;47.490;19.030;2023-05-03T12:29:14;100500.28;;;21.18;54.51
67980;BME280;54760;47.490;19.030;2023-05-03T12:31:43;100500.09;;;21.22;54.50
67980;BME280;54760;47.490;19.030;2023-05-03T12:34:09;100494.72;;;21.04;55.48
67980;BME280;54760;47.490;19.030;2023-05-03T12:36:36;100492.72;;;21.19;54.93
67980;BME280;54760;47.490;19.030;2023-05-03T12:39:02;100492.03;;;21.09;55.40
67980;BME280;54760;47.490;19.030;2023-05-03T12:41:28;100492.97;;;20.92;55.89
67980;BME280;54760;47.490;19.030;2023-05-03T12:43:59;100493.84;;;20.83;56.06
67980;BME280;54760;47.490;19.030;2023-05-03T12:46:26;100488.66;;;20.61;56.78
67980;BME280;54760;47.490;19.030;2023-05-03T12:48:52;100497.84;;;20.67;56.83
67980;BME280;54760;47.490;19.030;2023-05-03T12:51:17;100489.81;;;20.69;56.76
67980;BME280;54760;47.490;19.030;2023-05-03T12:53:43;100485.50;;;20.68;56.19
67980;BME280;54760;47.490;19.030;2023-05-03T12:56:09;100484.72;;;20.68;56.32
67980;BME280;54760;47.490;19.030;2023-05-03T12:58:35;100481.09;;;20.77;56.17